Time;durP1;ratioP1;P1;durP2;ratioP2;P2;SDS_P1;SDS_P2;PMS_P1;PMS_P2;Temp;Humidity;BMP_temperature;BMP_pressure;BME280_temperature;BME280_humidity;BME280_pressure;Samples;Min_cycle;Max_cycle;Signal;HPM_P1;HPM_P2
2023/04/01 00:01:00;;;;;;;12.95;8.13;;;;;;;9.68;100.00;99480.88;10338166;28;20036;-72
2023/04/01 00:05:58;;;;;;;11.07;7.45;;;;;;;9.64;100.00;99479.94;10332280;28;20052;-72
2023/04/01 00:10:56;;;;;;;14.35;9.32;;;;;;;9.55;100.00;99476.53;10339060;28;20161;-73
2023/04/01 00:15:54;;;;;;;10.07;7.32;;;;;;;9.63;100.00;99478.34;10331216;28;20079;-73
2023/04/01 00:20:52;;;;;;;13.20;8.13;;;;;;;9.63;100.00;99478.34;10349644;28;20129;-72
2023/04/01 00:25:49;;;;;;;8.32;7.43;;;;;;;9.62;100.00;99479.50;10338159;28;20127;-73
2023/04/01 00:30:46;;;;;;;8.65;7.75;;;;;;;9.58;100.00;99487.56;10347576;28;20052;-73
2023/04/01 00:35:44;;;;;;;12.65;7.60;;;;;;;9.60;100.00;99484.50;10344456;28;20154;-73
2023/04/01 00:40:44;;;;;;;14.43;8.68;;;;;;;9.57;100.00;99480.53;10345657;28;20036;-73
2023/04/01 00:45:42;;;;;;;9.88;7.53;;;;;;;9.45;100.00;99477.78;10346045;28;20044;-73
2023/04/01 00:50:42;;;;;;;13.80;7.13;;;;;;;9.38;100.00;99478.34;10343801;28;20044;-74
2023/04/01 00:55:43;;;;;;;10.95;7.20;;;;;;;9.35;100.00;99479.03;10341990;28;20051;-73
2023/04/01 01:00:40;;;;;;;11.07;7.75;;;;;;;9.31;100.00;99483.59;10337315;28;20040;-72
2023/04/01 01:06:08;;;;;;;12.77;8.77;;;;;;;9.29;100.00;99485.84;10339357;28;20058;-73
2023/04/01 01:11:08;;;;;;;9.65;7.53;;;;;;;9.27;100.00;99488.13;10346335;28;20142;-73
2023/04/01 01:16:24;;;;;;;12.90;9.65;;;;;;;9.20;100.00;99488.66;10342499;28;20097;-73
2023/04/01 01:21:27;;;;;;;16.50;9.43;;;;;;;9.25;100.00;99484.91;10341100;28;20835;-72
2023/04/01 01:26:53;;;;;;;12.63;8.80;;;;;;;9.18;100.00;99484.69;10329367;28;20127;-72
2023/04/01 01:32:23;;;;;;;13.30;9.02;;;;;;;9.20;100.00;99493.34;10337980;28;20156;-72
2023/04/01 01:37:23;;;;;;;12.63;8.88;;;;;;;9.20;100.00;99493.34;10318137;28;20078;-73
2023/04/01 01:42:25;;;;;;;14.20;9.48;;;;;;;9.17;100.00;99483.91;10340101;28;20570;-73
2023/04/01 01:47:25;;;;;;;15.05;8.75;;;;;;;9.14;100.00;99494.66;10345178;28;20050;-72
2023/04/01 01:52:22;;;;;;;11.88;7.72;;;;;;;9.21;100.00;99501.19;10355053;28;20043;-72
2023/04/01 01:57:24;;;;;;;9.82;8.27;;;;;;;9.26;100.00;99508.34;10344119;28;20097;-72
2023/04/01 02:02:22;;;;;;;12.40;8.50;;;;;;;9.23;100.00;99495.38;10342061;28;20495;-72
2023/04/01 02:07:27;;;;;;;12.98;8.00;;;;;;;9.23;100.00;99506.28;10345281;28;20040;-72
2023/04/01 02:12:24;;;;;;;12.23;8.27;;;;;;;9.21;100.00;99503.09;10342593;28;20068;-72
2023/04/01 02:17:27;;;;;;;14.90;9.10;;;;;;;9.19;100.00;99492.53;10344140;28;20135;-72
2023/04/01 02:22:28;;;;;;;15.52;9.52;;;;;;;9.17;100.00;99503.00;10346651;28;20403;-70
2023/04/01 02:27:25;;;;;;;12.90;9.88;;;;;;;9.14;100.00;99505.59;10342164;28;20075;-73
2023/04/01 02:32:22;;;;;;;9.55;8.57;;;;;;;9.26;100.00;99502.91;10343105;28;20526;-72
2023/04/01 02:37:19;;;;;;;12.77;9.52;;;;;;;9.21;100.00;99505.81;10340300;28;20415;-68
2023/04/01 02:42:18;;;;;;;9.88;8.88;;;;;;;9.20;100.00;99509.69;10342662;28;20040;-71
2023/04/01 02:47:14;;;;;;;10.88;8.65;;;;;;;9.18;100.00;99517.41;10341641;27;20075;-73
2023/04/01 02:52:11;;;;;;;17.25;10.40;;;;;;;9.14;100.00;99521.94;10340336;28;20042;-74
2023/04/01 02:57:07;;;;;;;14.25;9.40;;;;;;;9.16;100.00;99519.69;10350056;28;20160;-73
2023/04/01 03:02:04;;;;;;;12.40;9.20;;;;;;;9.16;100.00;99525.13;10334862;28;20127;-73
2023/04/01 03:07:01;;;;;;;13.07;9.95;;;;;;;9.15;100.00;99526.28;10338786;28;20056;-73
2023/04/01 03:11:57;;;;;;;14.95;10.05;;;;;;;9.16;100.00;99527.84;10344769;28;20056;-75
2023/04/01 03:16:54;;;;;;;11.90;9.63;;;;;;;9.09;100.00;99535.78;10342447;28;20569;-74
2023/04/01 03:21:51;;;;;;;13.85;10.35;;;;;;;9.10;100.00;99540.09;10329952;28;20044;-72
2023/04/01 03:26:48;;;;;;;15.15;10.98;;;;;;;9.08;100.00;99534.22;10345858;28;20526;-74
2023/04/01 03:31:44;;;;;;;12.38;10.55;;;;;;;9.10;100.00;99535.47;10342264;27;20101;-75
2023/04/01 03:36:41;;;;;;;12.27;9.95;;;;;;;9.06;100.00;99532.59;10336825;27;20095;-74
2023/04/01 03:41:38;;;;;;;12.90;10.65;;;;;;;9.14;100.00;99541.81;10344288;28;20051;-74
2023/04/01 03:46:34;;;;;;;14.25;11.15;;;;;;;9.00;100.00;99544.06;10340738;28;20880;-75
2023/04/01 03:51:31;;;;;;;14.48;11.05;;;;;;;8.98;100.00;99549.88;10346005;28;20464;-72
2023/04/01 03:56:27;;;;;;;19.63;11.60;;;;;;;9.01;100.00;99556.56;10355382;27;20068;-69
2023/04/01 04:01:24;;;;;;;13.10;11.30;;;;;;;8.99;100.00;99562.34;10356893;28;20052;-69
2023/04/01 04:06:21;;;;;;;14.05;10.85;;;;;;;9.01;100.00;99557.38;10352540;28;21890;-69
2023/04/01 04:11:18;;;;;;;12.90;11.50;;;;;;;9.02;100.00;99569.84;10354367;28;20439;-70
2023/04/01 04:16:16;;;;;;;14.05;11.63;;;;;;;8.96;100.00;99564.97;10353322;28;20422;-69
2023/04/01 04:21:14;;;;;;;15.18;11.15;;;;;;;9.01;100.00;99573.72;10359613;27;20123;-69
2023/04/01 04:26:14;;;;;;;14.25;11.40;;;;;;;8.96;100.00;99571.22;10355207;28;20454;-71
2023/04/01 04:31:11;;;;;;;18.90;12.48;;;;;;;9.02;100.00;99578.03;10357498;28;20461;-71
2023/04/01 04:36:07;;;;;;;19.52;14.60;;;;;;;9.01;100.00;99578.38;10360489;28;20055;-73
2023/04/01 04:41:17;;;;;;;14.35;12.43;;;;;;;8.96;100.00;99582.13;10355375;27;20109;-73
2023/04/01 04:46:14;;;;;;;15.23;11.73;;;;;;;9.00;100.00;99591.19;10357554;27;20044;-72
2023/04/01 04:51:18;;;;;;;15.82;11.82;;;;;;;9.06;100.00;99598.03;10350124;27;20051;-72
2023/04/01 04:56:22;;;;;;;14.70;13.20;;;;;;;8.99;100.00;99603.25;10355817;28;20655;-73
2023/04/01 05:01:18;;;;;;;14.55;12.98;;;;;;;9.05;100.00;99607.38;10351275;28;20063;-73
2023/04/01 05:06:16;;;;;;;16.55;12.82;;;;;;;9.03;100.00;99604.19;10347208;28;20503;-72
2023/04/01 05:11:16;;;;;;;12.88;11.65;;;;;;;9.05;100.00;99618.28;10350798;28;20124;-72
2023/04/01 05:16:15;;;;;;;14.63;13.23;;;;;;;9.06;100.00;99619.84;10343273;28;20063;-72
2023/04/01 05:21:13;;;;;;;9.52;8.63;;;;;;;8.74;100.00;99624.13;10343416;27;20048;-72
2023/04/01 05:26:13;;;;;;;7.05;6.50;;;;;;;8.12;100.00;99636.50;10348479;28;20044;-72
2023/04/01 05:31:10;;;;;;;8.70;8.10;;;;;;;7.93;100.00;99639.59;10349906;28;20058;-74
2023/04/01 05:36:09;;;;;;;7.45;6.82;;;;;;;8.00;100.00;99655.44;10346352;28;20047;-74
2023/04/01 05:41:05;;;;;;;7.28;6.68;;;;;;;7.91;100.00;99651.94;10352176;28;20082;-74
2023/04/01 05:46:02;;;;;;;6.90;6.40;;;;;;;7.57;100.00;99664.53;10344082;28;20058;-72
2023/04/01 05:50:59;;;;;;;7.18;6.68;;;;;;;7.50;100.00;99677.84;10343401;28;20105;-70
2023/04/01 05:55:55;;;;;;;7.00;6.50;;;;;;;7.41;100.00;99682.47;10339425;28;20102;-70
2023/04/01 06:00:59;;;;;;;6.97;6.47;;;;;;;7.35;100.00;99690.78;10344948;28;20083;-70
2023/04/01 06:06:14;;;;;;;7.10;6.60;;;;;;;7.12;100.00;99692.88;10337780;28;20043;-70
2023/04/01 06:11:28;;;;;;;7.20;6.60;;;;;;;7.17;100.00;99702.78;10338253;28;20075;-70
2023/04/01 06:17:02;;;;;;;7.43;6.82;;;;;;;7.16;100.00;99704.69;10347043;28;20036;-73
2023/04/01 06:22:13;;;;;;;7.68;7.07;;;;;;;7.09;100.00;99714.47;10346557;28;20071;-73
2023/04/01 06:27:34;;;;;;;8.07;7.47;;;;;;;7.06;100.00;99723.25;10346192;28;20190;-72
2023/04/01 06:32:53;;;;;;;8.00;7.50;;;;;;;7.12;100.00;99741.00;10343542;28;21273;-73
2023/04/01 06:38:03;;;;;;;7.60;7.03;;;;;;;7.03;100.00;99748.34;10346776;28;20067;-73
2023/04/01 06:43:14;;;;;;;8.20;7.50;;;;;;;7.18;100.00;99745.19;10345752;28;20101;-72
2023/04/01 06:48:20;;;;;;;7.50;7.00;;;;;;;7.17;100.00;99754.44;10345183;28;20040;-73
2023/04/01 06:53:42;;;;;;;7.22;6.63;;;;;;;7.00;100.00;99757.13;10340134;28;20048;-74
2023/04/01 06:58:46;;;;;;;7.18;6.43;;;;;;;6.91;100.00;99762.56;10334255;28;20036;-74
2023/04/01 07:04:05;;;;;;;7.07;6.57;;;;;;;6.82;100.00;99776.09;10342330;28;20047;-73
2023/04/01 07:09:08;;;;;;;6.65;6.15;;;;;;;6.77;100.00;99784.41;10336402;28;20097;-74
2023/04/01 07:14:22;;;;;;;6.30;5.90;;;;;;;6.92;100.00;99792.13;10344119;27;20047;-73
2023/04/01 07:19:23;;;;;;;7.05;6.47;;;;;;;6.68;100.00;99808.03;10336778;28;20073;-73
2023/04/01 07:24:33;;;;;;;6.70;6.20;;;;;;;6.60;100.00;99811.53;10345493;28;20218;-73
2023/04/01 07:29:30;;;;;;;6.35;5.95;;;;;;;6.61;100.00;99813.13;10333811;28;20073;-72
2023/04/01 07:34:56;;;;;;;6.68;6.18;;;;;;;6.47;100.00;99827.59;10343866;28;20504;-73
2023/04/01 07:40:21;;;;;;;6.70;6.10;;;;;;;6.56;100.00;99837.69;10300186;28;20043;-70
2023/04/01 07:45:34;;;;;;;6.78;6.28;;;;;;;6.65;100.00;99847.50;10323998;28;20113;-70
2023/04/01 07:50:55;;;;;;;6.95;6.32;;;;;;;6.68;100.00;99852.31;10331145;28;20108;-75
2023/04/01 07:55:57;;;;;;;6.10;5.70;;;;;;;6.54;100.00;99851.59;10331219;28;20055;-75
2023/04/01 08:01:16;;;;;;;6.38;5.88;;;;;;;6.43;100.00;99867.34;10331168;28;20050;-74
2023/04/01 08:06:25;;;;;;;6.68;6.18;;;;;;;6.48;100.00;99877.28;10345779;28;20490;-75
2023/04/01 08:12:01;;;;;;;6.78;6.18;;;;;;;6.60;100.00;99893.00;10329715;28;20123;-74
2023/04/01 08:17:24;;;;;;;6.28;5.78;;;;;;;6.49;100.00;99893.25;10327107;28;20144;-70
2023/04/01 08:22:44;;;;;;;5.85;5.45;;;;;;;6.41;100.00;99896.72;10319856;28;20504;-70
2023/04/01 08:27:45;;;;;;;5.55;5.15;;;;;;;6.56;100.00;99911.03;10329468;28;20435;-70
2023/04/01 08:32:44;;;;;;;6.15;5.72;;;;;;;6.60;100.00;99920.97;10306547;28;20054;-68
2023/04/01 08:37:43;;;;;;;5.68;5.25;;;;;;;6.55;100.00;99923.03;10325868;28;20741;-69
2023/04/01 08:43:03;;;;;;;5.75;5.35;;;;;;;6.55;100.00;99928.47;10347211;28;20051;-68
2023/04/01 08:48:17;;;;;;;6.32;5.90;;;;;;;6.79;100.00;99942.47;10346786;28;20040;-68
2023/04/01 08:53:48;;;;;;;6.57;5.93;;;;;;;6.98;100.00;99946.91;10335207;28;20074;-68
2023/04/01 08:58:50;;;;;;;6.47;5.90;;;;;;;6.79;100.00;99956.06;10287200;28;20036;-69
2023/04/01 09:04:05;;;;;;;6.22;5.82;;;;;;;7.02;100.00;99958.75;10337718;28;20055;-69
2023/04/01 09:09:19;;;;;;;5.35;4.95;;;;;;;6.78;100.00;99959.91;10333743;28;20064;-69
2023/04/01 09:14:46;;;;;;;4.93;4.53;;;;;;;7.08;100.00;99965.69;10337673;28;20040;-69
2023/04/01 09:20:15;;;;;;;5.72;5.13;;;;;;;7.21;100.00;99972.91;10342664;28;20423;-69
2023/04/01 09:25:23;;;;;;;5.20;4.80;;;;;;;6.93;100.00;99973.09;10317899;28;20139;-70
2023/04/01 09:30:28;;;;;;;5.20;4.80;;;;;;;6.86;100.00;99993.69;10337625;27;20504;-69
2023/04/01 09:35:37;;;;;;;4.60;4.20;;;;;;;7.03;100.00;100003.84;10329796;28;20074;-69
2023/04/01 09:40:54;;;;;;;5.45;4.95;;;;;;;7.16;100.00;100013.84;10342950;28;20040;-70
2023/04/01 09:46:09;;;;;;;5.03;4.50;;;;;;;7.22;100.00;100012.59;10302074;28;20135;-69
2023/04/01 09:51:20;;;;;;;4.68;4.28;;;;;;;6.95;100.00;100019.78;10332379;28;20059;-67
2023/04/01 09:56:54;;;;;;;4.30;4.00;;;;;;;7.40;100.00;100023.53;10337132;28;20713;-68
2023/04/01 10:01:52;;;;;;;;;;;;;;;7.45;100.00;100042.44;10337656;28;20036;-68
2023/04/01 10:07:22;;;;;;;5.00;4.50;;;;;;;7.66;100.00;100042.69;10343466;28;20455;-68
2023/04/01 10:12:35;;;;;;;5.28;4.88;;;;;;;7.54;100.00;100052.25;10337814;28;20530;-67
2023/04/01 10:17:34;;;;;;;;;;;;;;;7.85;100.00;100056.06;10336779;28;20051;-67
2023/04/01 10:22:50;;;;;;;4.50;4.20;;;;;;;7.92;100.00;100053.66;10330144;28;19931;-67
2023/04/01 10:28:15;;;;;;;5.22;4.82;;;;;;;7.49;100.00;100071.41;10336132;28;20414;-67
2023/04/01 10:33:20;;;;;;;4.18;3.83;;;;;;;7.78;100.00;100078.28;10327899;28;20642;-66
2023/04/01 10:38:38;;;;;;;4.30;3.90;;;;;;;7.73;100.00;100071.06;10342306;28;20048;-66
2023/04/01 10:43:52;;;;;;;4.70;4.40;;;;;;;7.33;100.00;100081.91;10333094;28;20083;-67
2023/04/01 10:49:11;;;;;;;3.95;3.58;;;;;;;7.27;100.00;100085.88;10344613;28;20044;-66
2023/04/01 10:54:39;;;;;;;4.30;4.00;;;;;;;7.76;100.00;100096.84;10335272;28;20389;-66
2023/04/01 10:59:50;;;;;;;4.82;4.10;;;;;;;7.88;100.00;100107.94;10341000;27;20082;-65
2023/04/01 11:05:40;;;;;;;4.43;3.95;;;;;;;7.61;100.00;100106.19;10326983;28;20462;-65
2023/04/01 11:11:23;;;;;;;4.80;4.40;;;;;;;7.51;100.00;100122.81;10286520;28;20074;-68
2023/04/01 11:16:52;;;;;;;5.40;5.00;;;;;;;7.52;100.00;100124.41;10330652;28;20516;-68
2023/04/01 11:22:10;;;;;;;4.82;4.43;;;;;;;7.44;100.00;100139.56;10331563;28;20048;-67
2023/04/01 11:27:37;;;;;;;4.43;4.03;;;;;;;7.62;100.00;100140.47;10333177;28;20078;-67
2023/04/01 11:33:02;;;;;;;4.68;4.25;;;;;;;7.70;100.00;100150.59;10329681;27;20043;-67
2023/04/01 11:38:15;;;;;;;6.30;4.63;;;;;;;7.40;100.00;100164.97;10328026;28;20045;-67
2023/04/01 11:43:49;;;;;;;5.43;4.97;;;;;;;7.37;100.00;100169.91;10338988;28;20123;-69
2023/04/01 11:48:57;;;;;;;5.57;5.07;;;;;;;7.10;100.00;100173.56;10327595;28;20045;-67
2023/04/01 11:54:10;;;;;;;6.70;6.10;;;;;;;7.01;100.00;100180.03;10328108;28;20420;-69
2023/04/01 11:59:42;;;;;;;7.97;6.68;;;;;;;7.18;100.00;100192.97;10338453;28;20040;-69
2023/04/01 12:04:39;;;;;;;7.05;6.45;;;;;;;6.99;100.00;100198.56;10332675;28;20076;-70
2023/04/01 12:09:55;;;;;;;7.53;6.93;;;;;;;6.88;100.00;100209.66;10338593;28;20376;-69
2023/04/01 12:15:38;;;;;;;6.95;6.32;;;;;;;6.91;100.00;100214.47;10314697;28;20084;-70
2023/04/01 12:20:56;;;;;;;7.10;6.50;;;;;;;6.79;100.00;100222.34;10340576;28;20044;-70
2023/04/01 12:26:13;;;;;;;9.52;7.15;;;;;;;6.56;100.00;100239.69;10354805;28;20049;-69
2023/04/01 12:31:28;;;;;;;6.82;6.22;;;;;;;6.71;100.00;100244.81;10338368;28;20179;-69
2023/04/01 12:36:51;;;;;;;7.65;6.97;;;;;;;6.47;100.00;100253.16;10340328;28;20093;-69
2023/04/01 12:42:03;;;;;;;7.20;6.50;;;;;;;6.58;100.00;100262.72;10333422;28;20071;-69
2023/04/01 12:47:44;;;;;;;7.55;6.75;;;;;;;6.47;100.00;100270.25;10338932;28;20047;-69
2023/04/01 12:53:11;;;;;;;7.93;7.22;;;;;;;6.45;100.00;100277.91;10321320;28;20052;-69
2023/04/01 12:58:43;;;;;;;8.57;6.90;;;;;;;6.30;100.00;100286.34;10332757;28;20055;-69
2023/04/01 13:04:27;;;;;;;9.32;7.07;;;;;;;6.41;100.00;100295.91;10338829;28;20153;-68
2023/04/01 13:09:34;;;;;;;7.03;6.32;;;;;;;6.39;100.00;100310.91;10332904;27;20524;-69
2023/04/01 13:14:32;;;;;;;10.95;6.35;;;;;;;6.42;100.00;100311.09;10343350;28;20495;-68
2023/04/01 13:19:37;;;;;;;7.43;5.93;;;;;;;6.42;100.00;100319.25;10353638;28;20610;-69
2023/04/01 13:24:36;;;;;;;7.35;6.53;;;;;;;6.03;100.00;100334.00;10344333;28;20055;-69
2023/04/01 13:29:39;;;;;;;6.80;6.10;;;;;;;6.13;100.00;100345.81;10339891;28;20682;-69
2023/04/01 13:34:47;;;;;;;8.38;6.68;;;;;;;6.23;100.00;100345.66;10345660;28;20043;-69
2023/04/01 13:40:05;;;;;;;7.65;5.63;;;;;;;6.37;100.00;100357.34;10330861;28;20684;-69
2023/04/01 13:45:05;;;;;;;6.82;5.97;;;;;;;6.23;100.00;100367.38;10340148;28;20135;-69
2023/04/01 13:50:22;;;;;;;8.82;5.82;;;;;;;6.21;100.00;100369.56;10327948;28;20098;-72
2023/04/01 13:55:36;;;;;;;11.30;8.10;;;;;;;6.41;100.00;100390.97;10342516;28;20434;-69
2023/04/01 14:00:47;;;;;;;7.25;6.55;;;;;;;6.30;100.00;100390.31;10350487;27;20055;-68
2023/04/01 14:06:10;;;;;;;6.65;5.97;;;;;;;6.20;100.00;100401.34;10339992;28;20089;-68
2023/04/01 14:11:22;;;;;;;7.70;6.82;;;;;;;6.11;100.00;100403.94;10322200;28;20048;-69
2023/04/01 14:17:06;;;;;;;7.53;6.40;;;;;;;6.32;100.00;100411.75;10342963;28;20126;-69
2023/04/01 14:22:35;;;;;;;8.70;6.72;;;;;;;5.94;100.00;100419.94;10346299;28;21176;-69
2023/04/01 14:27:46;;;;;;;6.47;5.43;;;;;;;6.36;100.00;100426.34;10344149;28;20044;-69
2023/04/01 14:33:11;;;;;;;7.72;5.90;;;;;;;6.22;100.00;100447.19;10342702;28;20036;-69
2023/04/01 14:38:38;;;;;;;7.88;6.10;;;;;;;6.09;100.00;100438.69;10341949;28;20126;-68
2023/04/01 14:43:55;;;;;;;6.15;4.95;;;;;;;6.32;100.00;100452.47;10330449;28;20422;-69
2023/04/01 14:48:57;;;;;;;8.93;5.63;;;;;;;6.02;100.00;100457.25;10326670;28;20052;-69
2023/04/01 14:54:00;;;;;;;8.10;6.00;;;;;;;6.06;100.00;100466.44;10344386;28;20044;-68
2023/04/01 14:58:58;;;;;;;8.93;6.07;;;;;;;5.98;100.00;100483.38;10325298;28;20047;-68
2023/04/01 15:04:26;;;;;;;6.95;5.95;;;;;;;5.72;100.00;100477.44;10337131;28;20045;-69
2023/04/01 15:09:38;;;;;;;7.30;6.60;;;;;;;5.77;100.00;100495.56;10330921;27;20415;-69
2023/04/01 15:14:43;;;;;;;9.87;6.17;;;;;;;5.80;100.00;100511.25;10334915;28;20466;-69
2023/04/01 15:20:25;;;;;;;9.18;7.10;;;;;;;5.67;100.00;100519.00;10348664;27;20050;-69
2023/04/01 15:25:41;;;;;;;9.40;7.10;;;;;;;5.61;100.00;100531.00;10315738;28;20396;-69
2023/04/01 15:31:05;;;;;;;8.27;6.90;;;;;;;5.68;100.00;100527.94;10336046;28;20046;-69
2023/04/01 15:36:24;;;;;;;9.00;6.55;;;;;;;5.40;100.00;100545.91;10338818;28;20589;-68
2023/04/01 15:41:48;;;;;;;10.77;6.93;;;;;;;5.44;100.00;100547.75;10327434;28;20123;-69
2023/04/01 15:46:48;;;;;;;13.18;7.25;;;;;;;5.31;100.00;100563.88;10312987;28;20135;-69
2023/04/01 15:52:06;;;;;;;14.18;7.88;;;;;;;5.37;100.00;100576.31;10334814;28;20044;-69
2023/04/01 15:57:40;;;;;;;9.32;6.90;;;;;;;5.15;100.00;100583.00;10323905;28;20128;-69
2023/04/01 16:03:06;;;;;;;10.63;7.38;;;;;;;5.15;100.00;100588.44;10338331;27;20124;-69
2023/04/01 16:08:39;;;;;;;9.65;7.72;;;;;;;5.23;100.00;100604.06;10330659;28;20048;-69
2023/04/01 16:14:00;;;;;;;11.13;8.10;;;;;;;5.20;100.00;100601.94;10346699;28;20040;-69
2023/04/01 16:19:23;;;;;;;12.50;7.38;;;;;;;5.11;100.00;100619.91;10332240;28;20130;-69
2023/04/01 16:24:39;;;;;;;7.72;6.57;;;;;;;4.98;100.00;100615.13;10339161;28;20040;-68
2023/04/01 16:29:50;;;;;;;11.10;6.95;;;;;;;5.25;100.00;100636.31;10323545;28;20432;-68
2023/04/01 16:35:01;;;;;;;10.52;6.82;;;;;;;4.93;100.00;100650.38;10333964;28;20037;-69
2023/04/01 16:40:26;;;;;;;13.98;7.55;;;;;;;4.99;100.00;100654.66;10327496;28;20098;-68
2023/04/01 16:45:28;;;;;;;11.65;7.55;;;;;;;4.70;100.00;100674.34;10328392;28;20552;-69
2023/04/01 16:50:39;;;;;;;8.95;6.40;;;;;;;4.98;100.00;100691.00;10339793;28;20036;-69
2023/04/01 16:56:00;;;;;;;11.20;7.78;;;;;;;4.98;100.00;100696.41;10338972;28;20578;-69
2023/04/01 17:01:11;;;;;;;10.35;7.57;;;;;;;4.54;100.00;100703.41;10329840;28;20048;-68
2023/04/01 17:06:26;;;;;;;12.60;7.47;;;;;;;4.63;100.00;100711.78;10339998;27;20086;-68
2023/04/01 17:11:30;;;;;;;12.93;8.00;;;;;;;4.56;100.00;100733.72;10334093;28;20589;-68
2023/04/01 17:16:59;;;;;;;19.08;7.90;;;;;;;4.50;100.00;100745.66;10349078;28;20101;-68
2023/04/01 17:22:17;;;;;;;11.73;6.55;;;;;;;4.66;100.00;100749.13;10334584;28;20044;-69
2023/04/01 17:27:16;;;;;;;7.50;6.50;;;;;;;4.48;100.00;100757.84;10347133;28;20051;-68
2023/04/01 17:32:22;;;;;;;7.88;5.80;;;;;;;4.70;100.00;100777.28;10353808;28;20059;-68
2023/04/01 17:37:28;;;;;;;9.57;6.88;;;;;;;4.59;100.00;100794.66;10329758;28;20052;-69
2023/04/01 17:42:42;;;;;;;7.43;6.68;;;;;;;4.57;100.00;100804.94;10326155;28;20563;-68
2023/04/01 17:47:46;;;;;;;8.77;6.32;;;;;;;4.39;100.00;100815.28;10340147;28;20048;-68
2023/04/01 17:52:59;;;;;;;9.40;6.88;;;;;;;4.60;100.00;100815.25;10342398;28;20097;-69
2023/04/01 17:58:15;;;;;;;8.68;6.63;;;;;;;4.33;100.00;100832.63;10341608;28;20474;-68
2023/04/01 18:03:28;;;;;;;9.98;7.15;;;;;;;4.41;100.00;100840.19;10355972;28;20074;-69
2023/04/01 18:08:48;;;;;;;6.73;6.00;;;;;;;4.50;100.00;100847.75;10334980;28;20086;-69
2023/04/01 18:14:13;;;;;;;7.75;6.22;;;;;;;4.42;100.00;100863.47;10330955;28;20050;-68
2023/04/01 18:19:32;;;;;;;6.75;5.55;;;;;;;4.30;100.00;100887.31;10348550;28;20088;-68
2023/04/01 18:25:02;;;;;;;6.63;5.75;;;;;;;4.36;100.00;100888.94;10336237;28;20044;-69
2023/04/01 18:30:02;;;;;;;10.38;6.80;;;;;;;4.07;100.00;100909.50;10331005;28;20098;-68
2023/04/01 18:35:21;;;;;;;9.15;6.50;;;;;;;3.92;100.00;100919.22;10344525;28;20064;-69
2023/04/01 18:40:31;;;;;;;13.95;7.00;;;;;;;4.03;100.00;100941.69;10327363;28;20071;-68
2023/04/01 18:45:35;;;;;;;8.48;6.47;;;;;;;4.02;100.00;100950.09;10352230;28;20048;-68
2023/04/01 18:50:43;;;;;;;8.65;6.95;;;;;;;3.92;100.00;100957.09;10345808;28;20633;-68
2023/04/01 18:55:50;;;;;;;7.45;6.28;;;;;;;4.02;100.00;100977.16;10334026;28;20044;-68
2023/04/01 19:01:04;;;;;;;9.95;6.55;;;;;;;3.92;100.00;100978.75;10314912;28;20120;-68
2023/04/01 19:06:15;;;;;;;8.63;6.20;;;;;;;3.97;100.00;100992.28;10347107;28;20079;-68
2023/04/01 19:11:49;;;;;;;10.25;6.28;;;;;;;3.87;100.00;101000.34;10345725;28;20063;-68
2023/04/01 19:16:46;;;;;;;;;;;;;;;3.95;100.00;101010.66;10330773;28;20127;-68
2023/04/01 19:22:21;;;;;;;10.38;6.43;;;;;;;3.94;100.00;101019.03;10336764;28;19920;-69
2023/04/01 19:27:41;;;;;;;8.70;6.18;;;;;;;3.83;100.00;101029.03;10326884;28;20134;-68
2023/04/01 19:32:55;;;;;;;8.63;6.15;;;;;;;3.94;100.00;101036.09;10328583;28;20044;-68
2023/04/01 19:38:04;;;;;;;8.35;6.05;;;;;;;3.88;100.00;101047.19;10336743;28;20138;-68
2023/04/01 19:43:08;;;;;;;10.68;5.97;;;;;;;3.85;100.00;101047.69;10325900;28;20048;-68
2023/04/01 19:48:31;;;;;;;9.93;6.45;;;;;;;3.67;100.00;101059.78;10345889;28;20063;-68
2023/04/01 19:53:43;;;;;;;6.65;5.95;;;;;;;3.40;100.00;101074.22;10336142;28;20496;-68
2023/04/01 19:58:54;;;;;;;8.23;6.13;;;;;;;3.23;100.00;101084.41;10336486;28;20050;-68
2023/04/01 20:03:57;;;;;;;6.78;5.28;;;;;;;3.10;100.00;101091.84;10336987;28;20151;-68
2023/04/01 20:08:59;;;;;;;7.72;5.82;;;;;;;2.77;100.00;101103.75;10338608;28;20071;-68
2023/04/01 20:14:04;;;;;;;9.13;5.50;;;;;;;2.67;100.00;101123.38;10326015;28;20079;-68
2023/04/01 20:19:02;;;;;;;8.25;5.60;;;;;;;2.76;100.00;101131.81;10331341;27;20051;-68
2023/04/01 20:24:06;;;;;;;9.55;5.93;;;;;;;2.44;100.00;101147.97;10327912;28;20508;-68
2023/04/01 20:29:26;;;;;;;8.35;5.70;;;;;;;2.34;100.00;101159.44;10341711;28;20060;-69
2023/04/01 20:34:48;;;;;;;7.90;5.45;;;;;;;2.56;100.00;101172.94;10334472;28;20051;-68
2023/04/01 20:40:23;;;;;;;7.40;5.40;;;;;;;2.44;100.00;101193.84;10331441;28;20525;-68
2023/04/01 20:45:33;;;;;;;7.50;6.25;;;;;;;2.42;100.00;101194.09;10337905;28;20047;-68
2023/04/01 20:50:57;;;;;;;6.60;5.50;;;;;;;2.18;100.00;101204.31;10330852;28;20479;-69
2023/04/01 20:56:17;;;;;;;13.95;5.60;;;;;;;2.18;100.00;101216.97;10348118;28;20131;-69
2023/04/01 21:01:55;;;;;;;8.57;5.38;;;;;;;2.11;100.00;101214.44;10339581;28;20097;-69
2023/04/01 21:07:21;;;;;;;9.35;5.30;;;;;;;2.01;100.00;101235.91;10332803;28;20146;-68
2023/04/01 21:12:43;;;;;;;11.05;5.63;;;;;;;1.94;100.00;101241.47;10345402;28;20495;-68
2023/04/01 21:17:54;;;;;;;8.48;5.55;;;;;;;1.80;100.00;101251.75;10332658;28;20106;-69
2023/04/01 21:23:09;;;;;;;7.88;5.25;;;;;;;1.76;100.00;101257.91;10337483;27;20101;-69
2023/04/01 21:28:25;;;;;;;7.28;5.20;;;;;;;1.53;100.00;101261.56;10335364;28;20564;-68
2023/04/01 21:33:59;;;;;;;11.10;6.30;;;;;;;1.50;100.00;101272.84;10350495;28;20059;-69
2023/04/01 21:39:01;;;;;;;;;;;;;;;1.43;100.00;101287.28;10336587;28;20071;-69
2023/04/01 21:44:19;;;;;;;9.52;6.25;;;;;;;1.38;100.00;101289.06;10337799;28;19956;-68
2023/04/01 21:49:18;;;;;;;12.02;6.88;;;;;;;1.31;100.00;101308.09;10336847;28;20036;-68
2023/04/01 21:54:37;;;;;;;11.55;6.82;;;;;;;1.22;100.00;101302.25;10337888;28;20590;-68
2023/04/01 21:59:40;;;;;;;8.13;6.00;;;;;;;1.24;100.00;101307.41;10346543;27;20127;-68
2023/04/01 22:04:58;;;;;;;10.00;5.40;;;;;;;1.26;100.00;101318.78;10342157;28;20047;-69
2023/04/01 22:10:22;;;;;;;7.57;5.53;;;;;;;1.21;100.00;101318.69;10324512;28;20079;-69
2023/04/01 22:16:15;;;;;;;7.70;4.90;;;;;;;1.25;100.00;101335.97;10344825;28;20055;-69
2023/04/01 22:21:51;;;;;;;7.32;4.95;;;;;;;1.21;100.00;101351.00;10317123;28;20522;-68
2023/04/01 22:27:02;;;;;;;6.30;4.63;;;;;;;1.18;100.00;101362.25;10350815;27;20047;-69
2023/04/01 22:32:16;;;;;;;12.90;5.18;;;;;;;0.95;100.00;101363.97;10327020;28;20036;-69
2023/04/01 22:37:48;;;;;;;10.80;4.88;;;;;;;0.99;100.00;101377.75;10335346;28;20036;-68
2023/04/01 22:42:48;;;;;;;8.40;4.80;;;;;;;0.97;100.00;101383.38;10337299;28;20644;-68
2023/04/01 22:48:06;;;;;;;7.25;4.63;;;;;;;0.99;100.00;101397.41;10336156;28;20051;-68
2023/04/01 22:53:17;;;;;;;5.35;4.07;;;;;;;0.95;100.00;101404.34;10335304;28;20468;-69
2023/04/01 22:58:27;;;;;;;8.38;4.50;;;;;;;0.92;100.00;101415.56;10332796;28;20142;-69
2023/04/01 23:03:40;;;;;;;7.35;4.78;;;;;;;0.80;100.00;101422.84;10330085;28;20041;-70
2023/04/01 23:09:01;;;;;;;6.82;4.30;;;;;;;0.74;100.00;101424.63;10341689;27;20044;-68
2023/04/01 23:14:29;;;;;;;9.73;4.85;;;;;;;0.76;100.00;101441.34;10330784;28;20048;-68
2023/04/01 23:19:54;;;;;;;7.45;4.78;;;;;;;0.77;100.00;101458.34;10342088;28;20052;-69
2023/04/01 23:24:59;;;;;;;5.15;4.18;;;;;;;0.71;100.00;101461.94;10331944;28;20629;-68
2023/04/01 23:29:55;;;;;;;8.10;4.68;;;;;;;0.71;100.00;101462.75;10328678;28;20134;-68
2023/04/01 23:34:58;;;;;;;6.18;4.30;;;;;;;0.76;100.00;101468.25;10339795;28;20059;-69
2023/04/01 23:39:58;;;;;;;6.25;3.90;;;;;;;0.71;100.00;101470.03;10335822;28;20538;-68
2023/04/01 23:45:01;;;;;;;6.65;4.20;;;;;;;0.71;100.00;101492.38;10339835;28;20098;-69
2023/04/01 23:50:02;;;;;;;6.05;4.10;;;;;;;0.55;100.00;101499.25;10324884;28;20053;-68